createdAt,value
2018-02-03T00:01:58.246Z,99848.66
2018-02-03T00:04:24.035Z,99844.58
2018-02-03T00:06:49.852Z,99841.87
2018-02-03T00:09:15.634Z,99836.87
2018-02-03T00:11:41.410Z,99836.22
2018-02-03T00:14:07.186Z,99834.98
2018-02-03T00:16:32.965Z,99829.45
2018-02-03T00:18:58.741Z,99827.94
2018-02-03T00:21:24.560Z,99832.83
2018-02-03T00:23:50.343Z,99830.61
2018-02-03T00:26:16.193Z,99838.41
2018-02-03T00:28:42.177Z,99834.30
2018-02-03T00:31:07.964Z,99836.86
2018-02-03T00:33:33.838Z,99836.04
2018-02-03T00:35:59.640Z,99836.86
2018-02-03T00:38:25.445Z,99839.92
2018-02-03T00:40:51.219Z,99837.28
2018-02-03T00:43:18.066Z,99837.77
2018-02-03T00:45:43.872Z,99837.16
2018-02-03T00:48:09.655Z,99837.09
2018-02-03T00:50:35.447Z,99839.09
2018-02-03T00:53:01.229Z,99843.46
2018-02-03T00:55:27.000Z,99838.19
2018-02-03T00:57:52.778Z,99839.99
2018-02-03T01:00:18.598Z,99835.47
2018-02-03T01:02:44.413Z,99841.05
2018-02-03T01:05:10.192Z,99838.19
2018-02-03T01:07:36.085Z,99839.43
2018-02-03T01:10:01.914Z,99837.02
2018-02-03T01:12:27.689Z,99834.98
2018-02-03T01:14:53.469Z,99832.30
2018-02-03T01:17:19.296Z,99829.62
2018-02-03T01:19:45.077Z,99831.89
2018-02-03T01:22:10.873Z,99826.05
2018-02-03T01:24:36.646Z,99834.94
2018-02-03T01:27:02.441Z,99835.77
2018-02-03T01:29:28.225Z,99831.25
2018-02-03T01:31:54.188Z,99830.98
2018-02-03T01:34:20.006Z,99828.95
2018-02-03T01:36:45.784Z,99827.71
2018-02-03T01:39:11.564Z,99818.75
2018-02-03T01:41:37.449Z,99822.66
2018-02-03T01:44:03.258Z,99821.76
2018-02-03T01:46:29.029Z,99816.41
2018-02-03T01:48:54.813Z,99812.45
2018-02-03T01:51:20.757Z,99811.06
2018-02-03T01:53:46.540Z,99814.75
2018-02-03T01:56:12.310Z,99811.14
2018-02-03T01:58:38.117Z,99809.06
2018-02-03T02:01:03.985Z,99810.08
2018-02-03T02:03:29.798Z,99811.81
2018-02-03T02:05:55.573Z,99814.60
2018-02-03T02:08:21.341Z,99809.75
2018-02-03T02:10:47.149Z,99814.34
2018-02-03T02:13:12.917Z,99811.33
2018-02-03T02:15:38.723Z,99807.45
2018-02-03T02:18:04.489Z,99809.52
2018-02-03T02:20:30.309Z,99804.66
2018-02-03T02:22:56.081Z,99797.46
2018-02-03T02:25:21.861Z,99803.42
2018-02-03T02:27:47.637Z,99805.64
2018-02-03T02:30:13.405Z,99798.98
2018-02-03T02:32:39.175Z,99800.78
2018-02-03T02:35:04.986Z,99805.86
2018-02-03T02:37:30.765Z,99801.08
2018-02-03T02:39:56.546Z,99800.25
2018-02-03T02:42:22.410Z,99799.61
2018-02-03T02:44:48.229Z,99797.47
2018-02-03T02:47:14.048Z,99798.86
2018-02-03T02:49:39.979Z,99796.83
2018-02-03T02:52:05.897Z,99807.38
2018-02-03T02:54:31.712Z,99799.34
2018-02-03T02:56:57.562Z,99799.39
2018-02-03T02:59:23.341Z,99798.37
2018-02-03T03:01:49.117Z,99799.39
2018-02-03T03:04:14.885Z,99807.18
2018-02-03T03:06:40.661Z,99807.52
2018-02-03T03:09:06.530Z,99808.28
2018-02-03T03:11:32.334Z,99804.66
2018-02-03T03:13:58.273Z,99803.30
2018-02-03T03:16:24.036Z,99802.33
2018-02-03T03:18:49.862Z,99805.98
2018-02-03T03:21:15.749Z,99809.25
2018-02-03T03:23:41.932Z,99806.96
2018-02-03T03:26:07.713Z,99796.30
2018-02-03T03:28:33.486Z,99798.93
2018-02-03T03:30:59.419Z,99794.19
2018-02-03T03:33:25.190Z,99791.78
2018-02-03T03:35:50.994Z,99795.16
2018-02-03T03:38:16.771Z,99789.75
2018-02-03T03:40:42.645Z,99790.80
2018-02-03T03:43:08.423Z,99795.46
2018-02-03T03:45:34.194Z,99801.26
2018-02-03T03:47:59.961Z,99788.80
2018-02-03T03:50:25.768Z,99793.02
2018-02-03T03:52:51.537Z,99794.34
2018-02-03T03:55:17.362Z,99791.48
2018-02-03T03:57:43.198Z,99793.02
2018-02-03T04:00:08.972Z,99799.69
2018-02-03T04:02:34.988Z,99790.53
2018-02-03T04:05:00.765Z,99786.77
2018-02-03T04:07:26.557Z,99783.86
2018-02-03T04:09:52.349Z,99782.87
2018-02-03T04:12:18.121Z,99790.09
2018-02-03T04:14:43.926Z,99791.69
2018-02-03T04:17:09.699Z,99792.86
2018-02-03T04:19:35.476Z,99790.30
2018-02-03T04:22:01.429Z,99786.64
2018-02-03T04:24:27.220Z,99787.87
2018-02-03T04:26:53.064Z,99789.55
2018-02-03T04:29:18.921Z,99792.82
2018-02-03T04:31:44.801Z,99796.78
2018-02-03T04:34:10.577Z,99790.22
2018-02-03T04:36:36.354Z,99788.65
2018-02-03T04:39:02.189Z,99790.23
2018-02-03T04:41:27.960Z,99781.91
2018-02-03T04:43:53.744Z,99780.46
2018-02-03T04:46:19.521Z,99782.47
2018-02-03T04:48:45.293Z,99779.01
2018-02-03T04:51:11.069Z,99772.81
2018-02-03T04:53:36.837Z,99778.02
2018-02-03T04:56:02.624Z,99775.23
2018-02-03T04:58:28.394Z,99776.09
2018-02-03T05:00:54.186Z,99774.28
2018-02-03T05:03:20.238Z,99779.08
2018-02-03T05:05:46.021Z,99779.49
2018-02-03T05:08:11.798Z,99782.46
2018-02-03T05:10:37.609Z,99791.20
2018-02-03T05:13:03.389Z,99782.06
2018-02-03T05:15:29.209Z,99782.96
2018-02-03T05:17:54.989Z,99783.63
2018-02-03T05:20:20.953Z,99788.50
2018-02-03T05:22:46.726Z,99793.28
2018-02-03T05:25:12.502Z,99788.98
2018-02-03T05:27:38.284Z,99788.64
2018-02-03T05:30:04.065Z,99791.97
2018-02-03T05:32:29.892Z,99796.83
2018-02-03T05:34:55.689Z,99796.22
2018-02-03T05:37:21.637Z,99796.82
2018-02-03T05:39:47.484Z,99800.44
2018-02-03T05:42:13.393Z,99799.34
2018-02-03T05:44:49.185Z,99798.86
2018-02-03T05:47:15.066Z,99801.42
2018-02-03T05:49:40.865Z,99805.94
2018-02-03T05:52:06.641Z,99811.81
2018-02-03T05:54:32.413Z,99812.12
2018-02-03T05:56:58.182Z,99815.58
2018-02-03T05:59:23.949Z,99814.04
2018-02-03T06:01:49.725Z,99817.09
2018-02-03T06:04:15.785Z,99821.76
2018-02-03T06:06:41.556Z,99830.42
2018-02-03T06:09:07.361Z,99832.30
2018-02-03T06:11:33.134Z,99835.77
2018-02-03T06:13:58.907Z,99831.55
2018-02-03T06:16:24.685Z,99834.11
2018-02-03T06:18:50.460Z,99837.36
2018-02-03T06:21:16.234Z,99831.47
2018-02-03T06:23:42.965Z,99829.74
2018-02-03T06:26:08.738Z,99839.31
2018-02-03T06:28:34.614Z,99835.63
2018-02-03T06:31:00.393Z,99838.48
2018-02-03T06:33:26.165Z,99835.13
2018-02-03T06:35:52.064Z,99832.30
2018-02-03T06:38:17.882Z,99838.34
2018-02-03T06:40:43.662Z,99842.02
2018-02-03T06:43:09.453Z,99843.41
2018-02-03T06:45:35.425Z,99844.52
2018-02-03T06:48:01.293Z,99844.92
2018-02-03T06:50:27.079Z,99851.03
2018-02-03T06:52:52.853Z,99846.92
2018-02-03T06:55:18.662Z,99844.73
2018-02-03T06:57:44.437Z,99844.29
2018-02-03T07:00:10.217Z,99848.13
2018-02-03T07:02:36.030Z,99849.52
2018-02-03T07:05:01.829Z,99851.33
2018-02-03T07:07:27.800Z,99851.52
2018-02-03T07:09:53.861Z,99852.16
2018-02-03T07:12:19.781Z,99856.08
2018-02-03T07:14:45.599Z,99859.50
2018-02-03T07:17:11.382Z,99857.06
2018-02-03T07:19:37.161Z,99856.87
2018-02-03T07:22:02.947Z,99857.47
2018-02-03T07:24:29.042Z,99856.53
2018-02-03T07:26:54.847Z,99856.53
2018-02-03T07:29:20.641Z,99863.48
2018-02-03T07:31:46.441Z,99859.66
2018-02-03T07:34:12.217Z,99861.58
2018-02-03T07:36:37.994Z,99860.60
2018-02-03T07:39:03.839Z,99865.34
2018-02-03T07:41:29.619Z,99865.88
2018-02-03T07:43:55.458Z,99866.17
2018-02-03T07:46:23.414Z,99866.73
2018-02-03T07:48:49.189Z,99869.42
2018-02-03T07:51:15.234Z,99871.52
2018-02-03T07:53:41.026Z,99866.29
2018-02-03T07:56:06.846Z,99870.09
2018-02-03T07:58:32.697Z,99867.91
2018-02-03T08:00:58.487Z,99871.41
2018-02-03T08:03:24.337Z,99872.69
2018-02-03T08:05:50.109Z,99872.05
2018-02-03T08:08:15.887Z,99871.52
2018-02-03T08:10:41.725Z,99875.41
2018-02-03T08:13:07.497Z,99876.66
2018-02-03T08:15:33.274Z,99880.45
2018-02-03T08:17:59.046Z,99881.51
2018-02-03T08:20:24.852Z,99881.84
2018-02-03T08:22:50.653Z,99888.13
2018-02-03T08:25:16.441Z,99882.33
2018-02-03T08:27:42.314Z,99883.51
2018-02-03T08:30:08.346Z,99881.28
2018-02-03T08:32:34.126Z,99880.05
2018-02-03T08:34:59.942Z,99886.30
2018-02-03T08:37:25.810Z,99888.45
2018-02-03T08:39:51.619Z,99889.83
2018-02-03T08:42:17.394Z,99895.94
2018-02-03T08:44:43.209Z,99896.13
2018-02-03T08:47:09.089Z,99900.38
2018-02-03T08:49:34.865Z,99897.94
2018-02-03T08:52:00.926Z,99893.04
2018-02-03T08:54:26.917Z,99895.22
2018-02-03T08:56:52.693Z,99896.49
2018-02-03T08:59:18.602Z,99897.73
2018-02-03T09:01:44.489Z,99899.06
2018-02-03T09:04:10.401Z,99891.50
2018-02-03T09:06:36.181Z,99891.57
2018-02-03T09:09:01.981Z,99891.30
2018-02-03T09:11:27.758Z,99894.36
2018-02-03T09:13:53.527Z,99895.98
2018-02-03T09:16:19.338Z,99893.64
2018-02-03T09:18:45.130Z,99888.78
2018-02-03T09:21:11.009Z,99895.75
2018-02-03T09:23:36.794Z,99893.60
2018-02-03T09:26:02.681Z,99892.77
2018-02-03T09:28:28.467Z,99890.85
2018-02-03T09:30:54.253Z,99891.30
2018-02-03T09:33:20.034Z,99891.91
2018-02-03T09:35:45.821Z,99902.13
2018-02-03T09:38:11.730Z,99900.05
2018-02-03T09:40:37.545Z,99898.66
2018-02-03T09:43:03.372Z,99909.66
2018-02-03T09:45:29.154Z,99912.90
2018-02-03T09:47:54.973Z,99903.15
2018-02-03T09:50:20.778Z,99902.94
2018-02-03T09:52:46.574Z,99909.86
2018-02-03T09:55:12.358Z,99907.16
2018-02-03T09:57:38.141Z,99905.91
2018-02-03T10:00:03.951Z,99906.62
2018-02-03T10:02:29.763Z,99899.05
2018-02-03T10:04:55.645Z,99897.40
2018-02-03T10:07:21.425Z,99889.86
2018-02-03T10:09:47.218Z,99892.58
2018-02-03T10:12:13.801Z,99897.33
2018-02-03T10:14:39.629Z,99898.09
2018-02-03T10:17:05.570Z,99890.84
2018-02-03T10:19:31.341Z,99892.38
2018-02-03T10:21:57.114Z,99895.66
2018-02-03T10:24:22.889Z,99898.97
2018-02-03T10:26:48.665Z,99896.83
2018-02-03T10:29:14.446Z,99902.09
2018-02-03T10:31:40.273Z,99899.81
2018-02-03T10:34:06.158Z,99896.55
2018-02-03T10:36:31.944Z,99900.63
2018-02-03T10:38:57.833Z,99907.45
2018-02-03T10:41:23.609Z,99905.42
2018-02-03T10:43:49.386Z,99903.41
2018-02-03T10:46:15.156Z,99907.88
2018-02-03T10:48:40.936Z,99913.00
2018-02-03T10:51:06.714Z,99907.81
2018-02-03T10:53:32.486Z,99912.02
2018-02-03T10:55:58.325Z,99906.13
2018-02-03T10:58:24.157Z,99917.30
2018-02-03T11:00:50.125Z,99910.70
2018-02-03T11:03:15.900Z,99911.35
2018-02-03T11:05:41.681Z,99906.14
2018-02-03T11:08:07.564Z,99907.31
2018-02-03T11:10:33.338Z,99911.60
2018-02-03T11:12:59.360Z,99908.70
2018-02-03T11:15:25.173Z,99908.61
2018-02-03T11:17:50.950Z,99911.94
2018-02-03T11:20:16.873Z,99913.81
2018-02-03T11:22:42.645Z,99912.72
2018-02-03T11:25:08.423Z,99919.93
2018-02-03T11:27:34.198Z,99915.23
2018-02-03T11:30:00.029Z,99921.06
2018-02-03T11:32:25.805Z,99921.82
2018-02-03T11:34:51.604Z,99912.91
2018-02-03T11:37:17.402Z,99914.98
2018-02-03T11:39:43.361Z,99917.19
2018-02-03T11:42:09.141Z,99920.00
2018-02-03T11:44:34.918Z,99912.42
2018-02-03T11:47:00.838Z,99918.70
2018-02-03T11:49:26.619Z,99918.44
2018-02-03T11:51:52.565Z,99915.91
2018-02-03T11:54:18.453Z,99915.95
2018-02-03T11:56:44.225Z,99915.05
2018-02-03T11:59:10.081Z,99911.61
2018-02-03T12:01:35.900Z,99913.88
2018-02-03T12:04:01.674Z,99906.61
2018-02-03T12:06:27.481Z,99914.44
2018-02-03T12:08:53.257Z,99915.84
2018-02-03T12:11:19.074Z,99916.10
2018-02-03T12:13:44.845Z,99921.00
2018-02-03T12:16:10.773Z,99923.38
2018-02-03T12:18:36.583Z,99925.02
2018-02-03T12:21:02.393Z,99934.68
2018-02-03T12:23:28.161Z,99926.02
2018-02-03T12:25:54.109Z,99925.05
2018-02-03T12:28:19.915Z,99931.28
2018-02-03T12:30:45.718Z,99921.91
2018-02-03T12:33:11.538Z,99926.27
2018-02-03T12:35:37.493Z,99924.61
2018-02-03T12:38:03.312Z,99932.91
2018-02-03T12:40:29.081Z,99928.50
2018-02-03T12:42:54.854Z,99930.13
2018-02-03T12:45:20.709Z,99927.38
2018-02-03T12:47:46.484Z,99930.70
2018-02-03T12:50:12.262Z,99928.33
2018-02-03T12:52:38.053Z,99934.31
2018-02-03T12:55:03.972Z,99931.52
2018-02-03T12:57:29.920Z,99933.08
2018-02-03T12:59:55.750Z,99933.01
2018-02-03T13:02:21.685Z,99934.17
2018-02-03T13:04:47.608Z,99931.77
2018-02-03T13:07:13.377Z,99928.14
2018-02-03T13:09:39.231Z,99924.09
2018-02-03T13:12:05.007Z,99929.59
2018-02-03T13:14:30.782Z,99923.91
2018-02-03T13:16:56.552Z,99925.55
2018-02-03T13:19:22.338Z,99930.94
2018-02-03T13:21:48.109Z,99923.95
2018-02-03T13:24:14.145Z,99929.74
2018-02-03T13:26:39.924Z,99930.19
2018-02-03T13:29:05.699Z,99931.42
2018-02-03T13:31:31.485Z,99936.38
2018-02-03T13:33:57.309Z,99940.02
2018-02-03T13:36:23.318Z,99939.59
2018-02-03T13:38:49.094Z,99942.20
2018-02-03T13:41:14.862Z,99947.13
2018-02-03T13:43:40.673Z,99953.28
2018-02-03T13:46:06.579Z,99943.98
2018-02-03T13:48:32.357Z,99947.42
2018-02-03T13:50:58.134Z,99947.41
2018-02-03T13:53:23.914Z,99948.41
2018-02-03T13:55:49.886Z,99948.41
2018-02-03T13:58:15.662Z,99946.86
2018-02-03T14:00:41.527Z,99954.42
2018-02-03T14:03:07.305Z,99949.44
2018-02-03T14:05:33.254Z,99951.16
2018-02-03T14:07:59.023Z,99950.45
2018-02-03T14:10:24.799Z,99956.68
2018-02-03T14:12:50.574Z,99956.94
2018-02-03T14:15:16.660Z,99951.61
2018-02-03T14:17:42.430Z,99952.47
2018-02-03T14:20:08.334Z,99958.67
2018-02-03T14:22:34.205Z,99957.36
2018-02-03T14:25:05.970Z,99964.30
2018-02-03T14:27:32.996Z,99969.86
2018-02-03T14:29:58.798Z,99969.38
2018-02-03T14:32:24.614Z,99972.66
2018-02-03T14:34:50.622Z,99968.03
2018-02-03T14:37:16.466Z,99969.94
2018-02-03T14:39:42.237Z,99973.16
2018-02-03T14:42:08.034Z,99974.97
2018-02-03T14:44:33.926Z,99972.64
2018-02-03T14:46:59.705Z,99974.59
2018-02-03T14:49:25.498Z,99975.92
2018-02-03T14:51:51.278Z,99979.36
2018-02-03T14:54:17.203Z,99979.75
2018-02-03T14:56:43.229Z,99987.45
2018-02-03T14:59:09.346Z,99988.28
2018-02-03T15:01:35.126Z,99990.89
2018-02-03T15:04:01.010Z,99991.87
2018-02-03T15:06:26.789Z,99992.52
2018-02-03T15:08:52.561Z,99989.11
2018-02-03T15:11:18.454Z,99991.76
2018-02-03T15:13:44.401Z,100002.69
2018-02-03T15:16:10.190Z,99999.48
2018-02-03T15:18:35.964Z,99999.12
2018-02-03T15:21:01.746Z,100006.07
2018-02-03T15:23:27.586Z,100017.64
2018-02-03T15:25:53.509Z,100014.48
2018-02-03T15:28:19.328Z,100020.02
2018-02-03T15:30:45.142Z,100017.41
2018-02-03T15:33:10.925Z,100029.02
2018-02-03T15:35:36.754Z,100027.88
2018-02-03T15:38:02.633Z,100029.65
2018-02-03T15:40:28.448Z,100032.95
2018-02-03T15:42:54.226Z,100028.31
2018-02-03T15:45:20.049Z,100034.20
2018-02-03T15:47:45.820Z,100041.95
2018-02-03T15:50:11.638Z,100045.31
2018-02-03T15:52:37.417Z,100040.61
2018-02-03T15:55:03.265Z,100040.70
2018-02-03T15:57:29.053Z,100037.13
2018-02-03T15:59:54.948Z,100037.70
2018-02-03T16:02:20.729Z,100035.30
2018-02-03T16:04:46.638Z,100029.41
2018-02-03T16:07:12.462Z,100029.50
2018-02-03T16:09:38.229Z,100027.50
2018-02-03T16:12:04.006Z,100032.95
2018-02-03T16:14:29.782Z,100029.55
2018-02-03T16:16:55.557Z,100031.11
2018-02-03T16:19:21.413Z,100027.97
2018-02-03T16:21:47.203Z,100027.99
2018-02-03T16:24:13.015Z,100033.25
2018-02-03T16:26:38.792Z,100029.38
2018-02-03T16:29:04.700Z,100031.44
2018-02-03T16:31:30.500Z,100028.94
2018-02-03T16:33:56.276Z,100029.33
2018-02-03T16:36:22.289Z,100031.41
2018-02-03T16:38:48.266Z,100034.94
2018-02-03T16:41:14.066Z,100039.01
2018-02-03T16:43:39.841Z,100035.00
2018-02-03T16:46:05.628Z,100035.56
2018-02-03T16:48:31.408Z,100045.41
2018-02-03T16:50:57.233Z,100046.39
2018-02-03T16:53:23.021Z,100054.57
2018-02-03T16:55:48.798Z,100056.00
2018-02-03T16:58:14.901Z,100059.55
2018-02-03T17:00:40.689Z,100060.91
2018-02-03T17:03:32.129Z,100061.94
2018-02-03T17:05:57.906Z,100069.91
2018-02-03T17:08:23.732Z,100063.60
2018-02-03T17:10:49.513Z,100073.72
2018-02-03T17:13:15.366Z,100069.41
2018-02-03T17:15:41.146Z,100064.66
2018-02-03T17:18:06.954Z,100059.98
2018-02-03T17:20:32.908Z,100062.98
2018-02-03T17:22:58.747Z,100069.16
2018-02-03T17:25:24.522Z,100068.03
2018-02-03T17:27:50.325Z,100078.65
2018-02-03T17:30:16.225Z,100077.97
2018-02-03T17:32:41.993Z,100082.50
2018-02-03T17:35:07.769Z,100088.66
2018-02-03T17:37:39.901Z,100087.70
2018-02-03T17:40:05.693Z,100085.59
2018-02-03T17:42:31.470Z,100090.91
2018-02-03T17:44:58.097Z,100094.05
2018-02-03T17:47:23.865Z,100090.78
2018-02-03T17:49:49.646Z,100091.78
2018-02-03T17:52:15.422Z,100097.77
2018-02-03T17:54:41.245Z,100100.91
2018-02-03T17:57:13.356Z,100106.59
2018-02-03T17:59:39.167Z,100109.50
2018-02-03T18:02:04.956Z,100101.45
2018-02-03T18:04:30.737Z,100107.75
2018-02-03T18:07:02.808Z,100115.30
2018-02-03T18:09:28.589Z,100116.44
2018-02-03T18:11:54.401Z,100114.79
2018-02-03T18:14:20.190Z,100116.04
2018-02-03T18:16:46.018Z,100115.59
2018-02-03T18:19:11.788Z,100116.70
2018-02-03T18:21:37.568Z,100120.83
2018-02-03T18:24:03.936Z,100128.03
2018-02-03T18:26:29.801Z,100127.24
2018-02-03T18:28:55.730Z,100128.41
2018-02-03T18:31:21.951Z,100126.09
2018-02-03T18:33:47.816Z,100131.73
2018-02-03T18:36:13.604Z,100133.58
2018-02-03T18:38:39.375Z,100130.19
2018-02-03T18:41:05.154Z,100127.86
2018-02-03T18:43:31.057Z,100128.38
2018-02-03T18:45:56.834Z,100131.02
2018-02-03T18:48:22.657Z,100126.58
2018-02-03T18:50:48.437Z,100130.05
2018-02-03T18:53:14.209Z,100131.47
2018-02-03T18:55:39.992Z,100138.16
2018-02-03T18:58:05.805Z,100140.66
2018-02-03T19:00:31.579Z,100136.29
2018-02-03T19:02:57.356Z,100145.61
2018-02-03T19:05:23.168Z,100141.07
2018-02-03T19:07:49.080Z,100148.14
2018-02-03T19:10:14.861Z,100147.80
2018-02-03T19:12:40.698Z,100152.37
2018-02-03T19:15:06.731Z,100152.44
2018-02-03T19:17:32.550Z,100153.23
2018-02-03T19:19:58.550Z,100156.88
2018-02-03T19:22:24.377Z,100164.95
2018-02-03T19:24:50.154Z,100162.67
2018-02-03T19:27:16.132Z,100164.23
2018-02-03T19:29:41.909Z,100162.60
2018-02-03T19:32:07.693Z,100163.33
2018-02-03T19:34:33.514Z,100164.72
2018-02-03T19:36:59.542Z,100171.30
2018-02-03T19:39:25.565Z,100171.38
2018-02-03T19:41:51.490Z,100174.46
2018-02-03T19:44:17.473Z,100170.55
2018-02-03T19:46:43.245Z,100172.59
2018-02-03T19:49:09.022Z,100175.50
2018-02-03T19:51:34.844Z,100177.92
2018-02-03T19:54:00.622Z,100175.09
2018-02-03T19:56:26.401Z,100181.84
2018-02-03T19:58:52.293Z,100187.53
2018-02-03T20:01:18.069Z,100189.23
2018-02-03T20:03:43.852Z,100196.58
2018-02-03T20:06:09.631Z,100207.20
2018-02-03T20:08:35.441Z,100210.04
2018-02-03T20:11:01.218Z,100214.83
2018-02-03T20:13:27.041Z,100217.50
2018-02-03T20:15:52.817Z,100222.06
2018-02-03T20:18:18.922Z,100224.03
2018-02-03T20:20:44.948Z,100224.49
2018-02-03T20:23:10.722Z,100221.88
2018-02-03T20:25:36.544Z,100224.64
2018-02-03T20:28:02.334Z,100228.31
2018-02-03T20:30:28.249Z,100226.14
2018-02-03T20:32:54.029Z,100232.07
2018-02-03T20:35:19.801Z,100234.75
2018-02-03T20:37:45.905Z,100239.41
2018-02-03T20:40:12.013Z,100238.19
2018-02-03T20:42:37.789Z,100235.52
2018-02-03T20:45:03.566Z,100242.89
2018-02-03T20:47:29.353Z,100245.73
2018-02-03T20:49:55.147Z,100248.11
2018-02-03T20:52:20.925Z,100246.33
2018-02-03T20:54:46.733Z,100244.83
2018-02-03T20:57:12.510Z,100248.27
2018-02-03T20:59:38.293Z,100252.12
2018-02-03T21:02:04.069Z,100253.67
2018-02-03T21:04:29.882Z,100255.39
2018-02-03T21:06:55.660Z,100249.79
2018-02-03T21:09:21.482Z,100250.00
2018-02-03T21:11:47.257Z,100258.00
2018-02-03T21:14:13.038Z,100258.17
2018-02-03T21:16:38.814Z,100255.31
2018-02-03T21:19:04.759Z,100259.31
2018-02-03T21:21:30.530Z,100269.13
2018-02-03T21:23:56.342Z,100269.95
2018-02-03T21:26:22.116Z,100267.75
2018-02-03T21:28:47.925Z,100278.20
2018-02-03T21:31:13.717Z,100280.92
2018-02-03T21:33:39.490Z,100288.39
2018-02-03T21:36:05.293Z,100289.41
2018-02-03T21:38:31.089Z,100293.91
2018-02-03T21:40:57.243Z,100304.50
2018-02-03T21:43:23.022Z,100303.94
2018-02-03T21:45:48.801Z,100308.30
2018-02-03T21:48:14.577Z,100311.09
2018-02-03T21:50:40.376Z,100316.25
2018-02-03T21:53:06.173Z,100306.64
2018-02-03T21:55:32.241Z,100308.97
2018-02-03T21:57:58.165Z,100306.12
2018-02-03T22:00:23.986Z,100309.54
2018-02-03T22:02:49.924Z,100309.67
2018-02-03T22:05:15.733Z,100313.30
2018-02-03T22:07:41.505Z,100322.96
2018-02-03T22:10:07.320Z,100327.53
2018-02-03T22:12:33.317Z,100327.36
2018-02-03T22:14:59.421Z,100329.07
2018-02-03T22:17:25.189Z,100337.25
2018-02-03T22:19:50.956Z,100353.67
2018-02-03T22:22:16.729Z,100350.72
2018-02-03T22:24:42.646Z,100361.37
2018-02-03T22:27:08.420Z,100361.83
2018-02-03T22:29:34.229Z,100361.75
2018-02-03T22:32:00.064Z,100356.47
2018-02-03T22:34:25.842Z,100354.41
2018-02-03T22:36:51.707Z,100359.25
2018-02-03T22:39:17.481Z,100361.75
2018-02-03T22:41:43.261Z,100364.83
2018-02-03T22:44:09.075Z,100367.76
2018-02-03T22:46:34.849Z,100371.53
2018-02-03T22:49:00.624Z,100376.42
2018-02-03T22:51:26.405Z,100381.77
2018-02-03T22:53:52.185Z,100382.07
2018-02-03T22:56:17.996Z,100390.52
2018-02-03T22:58:43.770Z,100384.16
2018-02-03T23:01:15.762Z,100384.77
2018-02-03T23:03:42.571Z,100387.45
2018-02-03T23:06:08.450Z,100383.07
2018-02-03T23:08:34.321Z,100382.13
2018-02-03T23:11:00.094Z,100392.26
2018-02-03T23:13:25.880Z,100390.14
2018-02-03T23:15:51.730Z,100391.59
2018-02-03T23:18:17.506Z,100394.34
2018-02-03T23:20:43.474Z,100396.98
2018-02-03T23:23:09.536Z,100406.27
2018-02-03T23:25:35.336Z,100417.59
2018-02-03T23:28:01.117Z,100415.52
2018-02-03T23:30:26.941Z,100422.41
2018-02-03T23:32:52.696Z,100420.94
2018-02-03T23:35:18.473Z,100422.30
2018-02-03T23:37:44.461Z,100422.19
2018-02-03T23:40:10.390Z,100419.38
2018-02-03T23:42:36.173Z,100420.80
2018-02-03T23:45:02.150Z,100415.84
2018-02-03T23:47:28.053Z,100421.34
2018-02-03T23:49:53.829Z,100419.98
2018-02-03T23:52:19.606Z,100417.39
2018-02-03T23:54:45.453Z,100417.03
2018-02-03T23:57:11.433Z,100415.12
2018-02-03T23:59:37.378Z,100419.38
